Time;durP1;ratioP1;P1;durP2;ratioP2;P2;SDS_P1;SDS_P2;PMS_P1;PMS_P2;Temp;Humidity;BMP_temperature;BMP_pressure;BME280_temperature;BME280_humidity;BME280_pressure;Samples;Min_cycle;Max_cycle;Signal;HPM_P1;HPM_P2
2023/09/16 00:00:19;;;;;;;11.90;5.33;;;;;;;18.53;67.99;99750.56;5093185;28;20106;-85
2023/09/16 00:02:44;;;;;;;8.10;4.88;;;;;;;18.52;67.87;99748.13;5095540;28;20257;-85
2023/09/16 00:05:10;;;;;;;12.75;6.15;;;;;;;18.51;67.98;99755.59;5092661;28;20111;-85
2023/09/16 00:07:35;;;;;;;14.07;4.73;;;;;;;18.51;67.93;99754.81;5093671;28;20155;-83
2023/09/16 00:10:00;;;;;;;7.30;4.78;;;;;;;18.50;67.99;99750.41;5095502;28;20260;-85
2023/09/16 00:12:27;;;;;;;9.38;5.10;;;;;;;18.51;67.97;99747.31;5096041;28;20028;-84
2023/09/16 00:14:52;;;;;;;8.18;4.93;;;;;;;18.46;68.15;99755.75;5095762;28;20066;-85
2023/09/16 00:17:18;;;;;;;9.13;5.13;;;;;;;18.38;68.23;99748.25;5096434;28;20028;-84
2023/09/16 00:19:44;;;;;;;7.40;4.55;;;;;;;18.40;68.12;99745.97;5096385;28;20024;-84
2023/09/16 00:22:10;;;;;;;10.82;5.38;;;;;;;18.37;68.54;99752.13;5096027;28;20020;-84
2023/09/16 00:24:40;;;;;;;7.05;3.85;;;;;;;18.32;68.36;99753.09;5096319;28;20059;-84
2023/09/16 00:27:05;;;;;;;7.22;3.95;;;;;;;18.31;68.01;99760.56;5096163;28;20027;-84
2023/09/16 00:29:30;;;;;;;7.25;3.83;;;;;;;18.31;68.54;99760.56;5096422;28;20028;-85
2023/09/16 00:31:56;;;;;;;22.93;5.07;;;;;;;18.32;68.74;99744.81;5096409;28;20032;-84
2023/09/16 00:34:21;;;;;;;8.20;4.07;;;;;;;18.43;68.42;99750.84;5093822;28;20252;-85
2023/09/16 00:36:47;;;;;;;11.02;4.85;;;;;;;18.43;68.29;99746.16;5088039;28;20032;-74
2023/09/16 00:39:13;;;;;;;6.88;3.83;;;;;;;18.44;68.35;99749.75;5088600;28;20040;-77
2023/09/16 00:41:39;;;;;;;8.95;4.45;;;;;;;18.42;68.80;99743.72;5088512;28;20731;-77
2023/09/16 00:44:04;;;;;;;7.57;3.38;;;;;;;18.43;68.70;99742.56;5086877;28;20146;-76
2023/09/16 00:46:29;;;;;;;9.55;5.18;;;;;;;18.48;68.63;99747.16;5087655;28;20020;-76
2023/09/16 00:48:55;;;;;;;10.50;5.20;;;;;;;18.52;68.54;99743.44;5087450;28;20234;-75
2023/09/16 00:51:21;;;;;;;9.45;4.88;;;;;;;18.52;68.65;99737.91;5090486;28;20349;-75
2023/09/16 00:53:46;;;;;;;8.70;5.40;;;;;;;18.57;68.54;99734.19;5089899;28;20024;-75
2023/09/16 00:56:13;;;;;;;10.13;5.30;;;;;;;18.58;68.35;99740.53;5090321;28;20097;-75
2023/09/16 00:58:40;;;;;;;12.23;5.43;;;;;;;18.58;68.26;99727.53;5091083;28;20055;-76
2023/09/16 01:01:06;;;;;;;10.77;6.00;;;;;;;18.63;68.42;99721.06;5091090;28;20553;-75
2023/09/16 01:03:35;;;;;;;14.77;5.60;;;;;;;18.65;68.21;99716.03;5088611;28;20432;-75
2023/09/16 01:06:06;;;;;;;9.23;5.18;;;;;;;18.63;68.17;99715.53;5091039;28;20055;-75
2023/09/16 01:08:34;;;;;;;13.45;5.88;;;;;;;18.61;68.47;99715.84;5092113;28;20030;-75
2023/09/16 01:11:02;;;;;;;11.60;5.45;;;;;;;18.61;68.54;99712.28;5092187;28;20024;-76
2023/09/16 01:13:28;;;;;;;11.15;6.25;;;;;;;18.60;68.77;99710.66;5090687;28;20024;-75
2023/09/16 01:16:06;;;;;;;12.82;5.55;;;;;;;18.65;68.46;99719.59;5092358;28;20030;-75
2023/09/16 01:18:39;;;;;;;7.40;4.82;;;;;;;18.64;68.50;99712.47;5091334;28;20024;-75
2023/09/16 01:21:05;;;;;;;10.55;5.65;;;;;;;18.65;68.31;99718.78;5091764;28;20036;-75
2023/09/16 01:23:31;;;;;;;9.32;5.55;;;;;;;18.59;68.55;99709.81;5091495;28;20032;-75
2023/09/16 01:25:56;;;;;;;12.70;6.65;;;;;;;18.58;68.53;99718.44;5092147;28;20066;-74
2023/09/16 01:28:24;;;;;;;13.75;6.40;;;;;;;18.58;68.50;99718.44;5087193;28;20628;-76
2023/09/16 01:30:50;;;;;;;10.43;6.35;;;;;;;18.53;68.77;99711.94;5085112;28;20093;-76
2023/09/16 01:33:18;;;;;;;9.25;5.55;;;;;;;18.53;69.16;99711.13;5085006;28;20036;-75
2023/09/16 01:35:47;;;;;;;10.88;6.10;;;;;;;18.54;68.93;99718.28;5084703;28;20604;-77
2023/09/16 01:38:14;;;;;;;10.30;6.53;;;;;;;18.51;69.09;99719.72;5091110;28;20024;-74
2023/09/16 01:40:43;;;;;;;10.75;5.95;;;;;;;18.48;69.38;99714.84;5091422;28;20039;-76
2023/09/16 01:43:08;;;;;;;8.63;4.95;;;;;;;18.48;69.35;99712.09;5093228;28;20020;-75
2023/09/16 01:45:41;;;;;;;10.70;5.67;;;;;;;18.49;69.22;99710.94;5093799;28;20035;-84
2023/09/16 01:48:06;;;;;;;9.23;5.00;;;;;;;18.47;69.58;99710.44;5094395;28;20301;-84
2023/09/16 01:50:31;;;;;;;10.63;5.82;;;;;;;18.48;69.87;99712.09;5093958;28;20024;-85
2023/09/16 01:52:57;;;;;;;13.85;6.47;;;;;;;18.55;69.97;99714.34;5093954;28;20032;-84
2023/09/16 01:55:22;;;;;;;11.17;6.73;;;;;;;18.53;69.92;99717.44;5091284;28;20553;-85
2023/09/16 01:57:47;;;;;;;8.07;5.10;;;;;;;18.55;69.84;99709.66;5093812;28;20336;-84
2023/09/16 02:00:13;;;;;;;7.73;4.77;;;;;;;18.58;70.00;99712.91;5094607;28;20032;-84
2023/09/16 02:02:38;;;;;;;11.55;5.68;;;;;;;18.62;69.61;99711.13;5094421;28;20244;-84
2023/09/16 02:05:04;;;;;;;7.93;4.85;;;;;;;18.65;69.71;99702.22;5093468;28;20060;-84
2023/09/16 02:07:29;;;;;;;7.90;4.95;;;;;;;18.63;70.07;99701.75;5090305;28;20070;-85
2023/09/16 02:09:56;;;;;;;7.67;4.07;;;;;;;18.66;70.05;99701.09;5092438;28;20469;-84
2023/09/16 02:12:22;;;;;;;15.40;6.45;;;;;;;18.67;69.71;99686.94;5093549;28;20299;-84
2023/09/16 02:14:51;;;;;;;12.07;5.25;;;;;;;18.67;69.60;99677.88;5094826;28;20106;-85
2023/09/16 02:17:17;;;;;;;12.05;5.30;;;;;;;18.73;69.54;99693.13;5094241;28;20042;-85
2023/09/16 02:19:42;;;;;;;8.50;5.18;;;;;;;18.77;69.41;99683.06;5093759;28;20020;-84
2023/09/16 02:22:08;;;;;;;12.15;6.05;;;;;;;18.82;69.44;99690.38;5093925;28;20032;-85
2023/09/16 02:24:33;;;;;;;7.95;4.97;;;;;;;18.84;69.00;99682.59;5093711;28;20020;-84
2023/09/16 02:26:59;;;;;;;9.80;5.40;;;;;;;18.84;68.98;99681.78;5094125;28;20028;-84
2023/09/16 02:29:24;;;;;;;11.60;5.10;;;;;;;18.84;69.08;99684.53;5097508;28;20016;-84
2023/09/16 02:31:50;;;;;;;11.48;5.47;;;;;;;18.85;69.24;99678.72;5093725;28;20028;-84
2023/09/16 02:34:15;;;;;;;9.95;5.75;;;;;;;18.88;69.07;99685.53;5094534;28;20501;-85
2023/09/16 02:36:40;;;;;;;9.80;4.77;;;;;;;18.87;68.84;99684.72;5099875;28;20039;-85
2023/09/16 02:39:06;;;;;;;11.90;5.97;;;;;;;18.89;68.90;99674.19;5093910;28;20256;-85
2023/09/16 02:41:31;;;;;;;12.43;7.27;;;;;;;18.93;68.57;99673.50;5093819;28;21156;-85
2023/09/16 02:43:57;;;;;;;9.27;5.90;;;;;;;18.91;69.20;99682.13;5093263;28;20260;-84
2023/09/16 02:46:22;;;;;;;12.60;7.50;;;;;;;18.84;69.11;99681.78;5093259;28;20335;-85
2023/09/16 02:48:47;;;;;;;18.27;7.15;;;;;;;18.83;69.26;99677.41;5091343;28;20035;-84
2023/09/16 02:51:12;;;;;;;12.07;6.37;;;;;;;18.85;69.22;99677.91;5085460;28;20036;-84
2023/09/16 02:53:38;;;;;;;12.20;7.37;;;;;;;18.76;69.08;99670.41;5089065;28;20383;-85
2023/09/16 02:56:03;;;;;;;16.13;6.30;;;;;;;18.71;69.19;99673.34;5091260;28;20261;-85
2023/09/16 02:58:29;;;;;;;13.38;7.35;;;;;;;18.68;69.29;99673.97;5093580;28;20112;-85
2023/09/16 03:00:54;;;;;;;15.25;7.82;;;;;;;18.66;69.62;99665.19;5094356;28;20638;-85
2023/09/16 03:03:20;;;;;;;12.68;6.57;;;;;;;18.71;69.19;99672.53;5093589;28;20056;-84
2023/09/16 03:05:45;;;;;;;11.88;6.68;;;;;;;18.69;69.26;99670.09;5093071;28;20061;-85
2023/09/16 03:08:13;;;;;;;11.00;5.80;;;;;;;18.69;69.40;99670.09;5093636;28;20691;-85
2023/09/16 03:10:39;;;;;;;13.30;7.20;;;;;;;18.70;69.35;99663.41;5093259;28;20024;-85
2023/09/16 03:13:04;;;;;;;14.48;8.07;;;;;;;18.72;69.39;99663.91;5093710;28;20024;-85
2023/09/16 03:15:30;;;;;;;13.13;7.15;;;;;;;18.72;69.49;99657.56;5091611;28;20039;-84
2023/09/16 03:17:55;;;;;;;12.93;7.27;;;;;;;18.76;69.27;99666.84;5088820;28;20044;-85
2023/09/16 03:20:21;;;;;;;17.67;7.22;;;;;;;18.76;69.24;99670.41;5088511;28;20249;-86
2023/09/16 03:22:46;;;;;;;11.10;6.68;;;;;;;18.80;69.32;99667.81;5087435;28;20040;-85
2023/09/16 03:25:11;;;;;;;10.50;6.20;;;;;;;18.82;69.37;99668.31;5086031;28;20484;-84
2023/09/16 03:27:37;;;;;;;12.73;5.83;;;;;;;18.84;68.94;99665.22;5093031;28;20100;-85
2023/09/16 03:30:03;;;;;;;10.88;6.10;;;;;;;18.83;69.12;99663.59;5093174;28;20251;-85
2023/09/16 03:32:29;;;;;;;13.00;6.72;;;;;;;18.84;69.06;99666.03;5093615;28;20028;-85
2023/09/16 03:34:54;;;;;;;10.43;5.82;;;;;;;18.83;69.36;99663.59;5091920;28;20036;-85
2023/09/16 03:37:20;;;;;;;10.47;6.80;;;;;;;18.84;69.29;99660.50;5094824;28;20024;-85
2023/09/16 03:39:45;;;;;;;12.13;7.60;;;;;;;18.81;69.02;99665.88;5096687;28;20257;-85
2023/09/16 03:42:10;;;;;;;11.27;6.10;;;;;;;18.78;69.51;99664.56;5095416;28;20656;-85
2023/09/16 03:44:36;;;;;;;11.07;6.30;;;;;;;18.76;69.29;99659.38;5093327;28;20288;-85
2023/09/16 03:47:02;;;;;;;12.57;6.55;;;;;;;18.75;69.28;99657.72;5096941;28;20621;-85
2023/09/16 03:49:28;;;;;;;11.15;6.10;;;;;;;18.73;69.38;99660.00;5097323;28;20377;-85
2023/09/16 03:51:53;;;;;;;18.30;6.53;;;;;;;18.70;69.56;99649.63;5097022;28;20028;-85
2023/09/16 03:54:18;;;;;;;10.90;5.72;;;;;;;18.71;69.64;99650.44;5096380;28;20264;-84
2023/09/16 03:56:44;;;;;;;12.17;6.00;;;;;;;18.69;69.58;99642.47;5098886;28;20020;-84
2023/09/16 03:59:09;;;;;;;10.88;5.88;;;;;;;18.69;70.01;99642.47;5096564;28;20793;-84
2023/09/16 04:01:34;;;;;;;13.25;6.68;;;;;;;18.69;69.45;99641.66;5101740;28;20016;-85
2023/09/16 04:04:00;;;;;;;10.15;5.20;;;;;;;18.66;69.52;99637.59;5098006;28;20032;-84
2023/09/16 04:06:26;;;;;;;11.70;5.65;;;;;;;18.60;69.13;99644.41;5094656;28;20124;-84
2023/09/16 04:08:51;;;;;;;9.13;5.40;;;;;;;18.57;69.53;99645.06;5087867;28;20055;-82
2023/09/16 04:11:17;;;;;;;9.77;5.78;;;;;;;18.53;69.62;99642.91;5089413;28;20120;-85
2023/09/16 04:13:43;;;;;;;10.80;4.95;;;;;;;18.54;69.72;99641.81;5089546;28;20032;-85
2023/09/16 04:16:08;;;;;;;19.40;9.77;;;;;;;18.54;69.50;99641.81;5094473;28;20034;-85
2023/09/16 04:18:34;;;;;;;12.70;7.95;;;;;;;18.48;69.76;99645.84;5099748;28;20101;-85
2023/09/16 04:21:02;;;;;;;15.05;8.18;;;;;;;18.42;69.78;99650.72;5096186;28;20036;-85
2023/09/16 04:23:29;;;;;;;11.90;6.65;;;;;;;18.42;69.69;99650.72;5095643;28;20473;-85
2023/09/16 04:25:56;;;;;;;12.70;6.63;;;;;;;18.43;70.00;99648.75;5096309;28;20024;-85
2023/09/16 04:28:21;;;;;;;14.18;6.75;;;;;;;18.42;69.91;99655.41;5096025;28;21176;-85
2023/09/16 04:30:51;;;;;;;8.40;5.13;;;;;;;18.43;69.95;99648.75;5096166;28;20024;-84
2023/09/16 04:33:17;;;;;;;14.55;5.78;;;;;;;18.43;69.58;99645.97;5095680;28;20038;-85
2023/09/16 04:35:52;;;;;;;12.60;6.40;;;;;;;18.47;69.60;99641.44;5095517;28;20024;-85
2023/09/16 04:38:18;;;;;;;15.75;7.10;;;;;;;18.45;69.87;99638.19;5096172;28;20097;-85
2023/09/16 04:40:44;;;;;;;12.43;6.38;;;;;;;18.45;70.24;99643.72;5096067;28;20024;-84
2023/09/16 04:43:12;;;;;;;12.23;5.78;;;;;;;18.40;70.13;99636.41;5095368;28;20060;-85
2023/09/16 04:45:38;;;;;;;11.63;6.47;;;;;;;18.41;69.88;99648.25;5095665;28;20048;-85
2023/09/16 04:48:04;;;;;;;13.90;6.82;;;;;;;18.39;70.10;99631.19;5092818;28;20046;-84
2023/09/16 04:50:29;;;;;;;13.82;7.22;;;;;;;18.37;69.86;99641.75;5093384;28;20032;-84
2023/09/16 04:52:56;;;;;;;13.02;5.70;;;;;;;18.37;69.88;99638.97;5093905;28;20038;-84
2023/09/16 04:55:21;;;;;;;14.68;6.00;;;;;;;18.34;70.03;99643.22;5093796;28;20717;-84
2023/09/16 04:57:46;;;;;;;12.80;6.28;;;;;;;18.35;69.97;99641.25;5091460;28;20040;-84
2023/09/16 05:00:12;;;;;;;11.00;5.97;;;;;;;18.33;70.02;99640.78;5086888;28;20040;-84
2023/09/16 05:02:37;;;;;;;11.35;6.00;;;;;;;18.29;70.19;99635.91;5095597;28;20032;-85
2023/09/16 05:05:03;;;;;;;9.30;5.03;;;;;;;18.22;70.28;99643.84;5095063;28;20664;-84
2023/09/16 05:07:28;;;;;;;14.68;7.13;;;;;;;18.20;70.15;99648.84;5094785;28;20309;-84
2023/09/16 05:09:54;;;;;;;17.60;7.63;;;;;;;18.15;70.56;99651.72;5095851;28;20032;-84
2023/09/16 05:12:19;;;;;;;13.43;6.72;;;;;;;18.14;70.75;99647.34;5095286;28;20046;-84
2023/09/16 05:14:46;;;;;;;17.57;6.97;;;;;;;18.14;70.56;99644.59;5092973;28;20046;-84
2023/09/16 05:17:11;;;;;;;12.98;6.38;;;;;;;18.11;71.01;99645.22;5095126;28;20378;-84
2023/09/16 05:19:36;;;;;;;15.05;7.13;;;;;;;18.09;70.71;99651.88;5089235;28;20107;-84
2023/09/16 05:22:03;;;;;;;12.13;5.63;;;;;;;18.08;70.50;99653.00;5094927;28;20109;-85
2023/09/16 05:24:31;;;;;;;11.00;6.47;;;;;;;18.08;70.99;99647.47;5094670;28;20263;-84
2023/09/16 05:26:56;;;;;;;9.65;5.25;;;;;;;18.08;70.97;99652.19;5094959;28;20362;-84
2023/09/16 05:29:22;;;;;;;15.63;8.57;;;;;;;18.09;71.21;99643.59;5094886;28;20108;-85
2023/09/16 05:31:48;;;;;;;11.77;6.63;;;;;;;18.14;70.95;99647.34;5094839;28;20244;-85
2023/09/16 05:34:14;;;;;;;11.10;5.65;;;;;;;18.14;71.12;99644.59;5094044;28;20062;-85
2023/09/16 05:36:39;;;;;;;26.30;7.28;;;;;;;18.16;71.04;99636.81;5084253;28;20503;-85
2023/09/16 05:39:04;;;;;;;11.37;6.40;;;;;;;18.24;70.59;99638.00;5094799;28;20082;-84
2023/09/16 05:41:29;;;;;;;12.50;7.03;;;;;;;18.25;71.06;99634.09;5094508;28;20261;-84
2023/09/16 05:43:55;;;;;;;12.35;6.50;;;;;;;18.26;71.14;99636.53;5094358;28;20109;-84
2023/09/16 05:46:22;;;;;;;18.27;9.55;;;;;;;18.28;70.89;99645.31;5094266;28;20652;-84
2023/09/16 05:48:49;;;;;;;15.65;7.75;;;;;;;18.26;71.06;99647.59;5099392;28;20020;-84
2023/09/16 05:51:14;;;;;;;11.88;7.40;;;;;;;18.27;71.29;99643.69;5094350;28;20859;-85
2023/09/16 05:53:41;;;;;;;22.23;6.85;;;;;;;18.25;71.32;99651.47;5093036;28;20024;-85
2023/09/16 05:56:08;;;;;;;18.83;9.32;;;;;;;18.28;71.36;99650.84;5095923;28;20032;-85
2023/09/16 05:58:34;;;;;;;20.50;10.60;;;;;;;18.30;71.53;99648.56;5092411;28;20352;-83
2023/09/16 06:00:59;;;;;;;22.92;10.95;;;;;;;18.33;71.23;99641.56;5092024;28;20031;-84
2023/09/16 06:03:25;;;;;;;21.90;10.00;;;;;;;18.32;71.46;99639.97;5090779;28;20484;-85
2023/09/16 06:05:57;;;;;;;19.67;7.93;;;;;;;18.33;71.63;99638.03;5089896;28;20059;-86
2023/09/16 06:08:22;;;;;;;15.05;7.80;;;;;;;18.39;71.57;99642.22;5091056;28;20043;-86
2023/09/16 06:10:48;;;;;;;13.65;8.52;;;;;;;18.38;71.38;99643.38;5092826;28;20055;-86
2023/09/16 06:13:13;;;;;;;19.13;7.60;;;;;;;18.37;71.82;99634.28;5093011;28;20031;-86
2023/09/16 06:15:38;;;;;;;13.17;7.30;;;;;;;18.43;71.34;99634.94;5092820;28;20253;-85
2023/09/16 06:18:06;;;;;;;17.20;8.70;;;;;;;18.45;71.80;99638.19;5092648;28;20273;-86
2023/09/16 06:20:31;;;;;;;16.45;8.20;;;;;;;18.51;71.59;99638.88;5092321;28;20255;-87
2023/09/16 06:23:01;;;;;;;17.33;8.00;;;;;;;18.52;71.40;99641.31;5092088;28;20039;-85
2023/09/16 06:25:26;;;;;;;14.75;7.82;;;;;;;18.59;71.16;99642.78;5092461;28;20024;-85
2023/09/16 06:27:52;;;;;;;13.77;8.70;;;;;;;18.62;71.30;99648.47;5091389;28;20062;-87
2023/09/16 06:30:17;;;;;;;15.83;8.57;;;;;;;18.62;71.40;99650.41;5092412;28;20028;-86
2023/09/16 06:32:42;;;;;;;15.17;7.30;;;;;;;18.61;71.69;99657.06;5093397;28;20273;-86
2023/09/16 06:35:07;;;;;;;20.73;7.73;;;;;;;18.64;71.52;99656.41;5091133;28;20757;-86
2023/09/16 06:37:33;;;;;;;14.35;7.47;;;;;;;18.66;71.61;99660.50;5092398;28;20255;-86
2023/09/16 06:39:58;;;;;;;14.37;7.53;;;;;;;18.66;71.76;99659.69;5092401;28;20100;-86
2023/09/16 06:42:23;;;;;;;13.23;8.20;;;;;;;18.68;71.96;99654.66;5090849;28;20272;-86
2023/09/16 06:44:54;;;;;;;15.50;7.83;;;;;;;18.71;72.15;99651.25;5090930;28;20379;-87
2023/09/16 06:47:25;;;;;;;13.45;8.25;;;;;;;18.74;71.48;99660.81;5087955;28;20264;-87
2023/09/16 06:49:50;;;;;;;16.83;8.98;;;;;;;18.76;71.68;99662.13;5085779;28;20083;-88
2023/09/16 06:52:16;;;;;;;17.70;9.50;;;;;;;18.73;71.69;99662.75;5085139;28;20046;-84
2023/09/16 06:54:41;;;;;;;17.25;8.10;;;;;;;18.78;71.66;99662.63;5085662;28;20085;-85
2023/09/16 06:57:06;;;;;;;11.40;7.63;;;;;;;18.83;71.62;99663.59;5092145;28;20032;-85
2023/09/16 06:59:32;;;;;;;12.60;8.00;;;;;;;18.86;71.49;99658.22;5090004;28;20602;-85
2023/09/16 07:01:57;;;;;;;18.23;8.15;;;;;;;18.86;71.37;99657.41;5090433;28;20317;-85
2023/09/16 07:04:25;;;;;;;11.07;7.55;;;;;;;18.86;71.30;99658.22;5087331;28;20070;-86
2023/09/16 07:06:50;;;;;;;14.98;8.50;;;;;;;18.90;71.36;99658.41;5085246;28;20044;-87
2023/09/16 07:09:15;;;;;;;19.07;9.03;;;;;;;18.95;71.01;99661.00;5085689;28;20035;-85
2023/09/16 07:11:41;;;;;;;13.17;7.97;;;;;;;18.97;70.82;99655.16;5087818;28;20359;-84
2023/09/16 07:14:06;;;;;;;14.73;8.30;;;;;;;19.01;70.82;99659.72;5087608;28;20304;-83
2023/09/16 07:16:36;;;;;;;13.90;7.70;;;;;;;19.04;70.72;99662.97;5088147;28;20500;-81
2023/09/16 07:19:02;;;;;;;12.45;7.25;;;;;;;19.04;70.98;99657.44;5086754;28;20513;-81
2023/09/16 07:21:27;;;;;;;13.18;7.55;;;;;;;19.08;70.68;99663.94;5086779;28;20058;-81
2023/09/16 07:23:53;;;;;;;23.33;8.83;;;;;;;19.10;71.09;99661.66;5087211;28;20074;-83
2023/09/16 07:26:19;;;;;;;11.55;7.03;;;;;;;19.13;70.79;99666.53;5088338;28;20264;-86
2023/09/16 07:28:44;;;;;;;16.87;8.53;;;;;;;19.18;70.86;99668.34;5090325;28;20039;-85
2023/09/16 07:31:09;;;;;;;10.77;6.60;;;;;;;19.21;70.85;99673.22;5088062;28;20271;-85
2023/09/16 07:33:34;;;;;;;11.60;6.63;;;;;;;19.22;71.33;99663.81;5088539;28;20280;-85
2023/09/16 07:36:00;;;;;;;9.15;5.68;;;;;;;19.25;71.28;99671.44;5088506;28;20295;-86
2023/09/16 07:38:25;;;;;;;9.00;5.90;;;;;;;19.31;71.43;99672.06;5088562;28;20110;-85
2023/09/16 07:40:52;;;;;;;11.07;5.90;;;;;;;19.33;71.52;99665.09;5088583;28;20598;-86
2023/09/16 07:43:18;;;;;;;17.35;8.00;;;;;;;19.40;71.11;99670.13;5090139;28;20296;-84
2023/09/16 07:45:44;;;;;;;11.65;6.63;;;;;;;19.44;70.88;99676.63;5090583;28;20028;-83
2023/09/16 07:48:09;;;;;;;9.97;6.27;;;;;;;19.48;70.97;99672.06;5096430;28;20028;-84
2023/09/16 07:50:35;;;;;;;10.20;6.57;;;;;;;19.54;71.12;99677.41;5096014;28;21614;-84
2023/09/16 07:53:00;;;;;;;10.43;6.32;;;;;;;19.56;71.10;99673.19;5091261;28;20407;-85
2023/09/16 07:55:25;;;;;;;11.13;5.67;;;;;;;19.61;71.36;99669.41;5093978;28;20118;-85
2023/09/16 07:57:51;;;;;;;13.10;5.78;;;;;;;19.68;70.87;99675.28;5093427;28;20313;-85
2023/09/16 08:00:16;;;;;;;12.47;5.93;;;;;;;19.75;70.21;99673.97;5093894;28;20122;-84
2023/09/16 08:02:41;;;;;;;12.80;6.47;;;;;;;19.77;70.16;99678.00;5093862;28;20863;-84
2023/09/16 08:05:07;;;;;;;10.50;5.40;;;;;;;19.81;69.97;99678.19;5095038;28;20336;-84
2023/09/16 08:07:34;;;;;;;9.63;5.90;;;;;;;19.85;69.94;99678.31;5092160;28;20051;-84
2023/09/16 08:10:00;;;;;;;12.52;6.32;;;;;;;19.87;69.75;99693.44;5086958;28;20032;-84
2023/09/16 08:12:25;;;;;;;10.25;5.72;;;;;;;19.90;69.62;99684.47;5086714;28;20040;-85
2023/09/16 08:14:50;;;;;;;13.77;6.87;;;;;;;19.92;69.62;99681.38;5091177;28;20032;-86
2023/09/16 08:17:16;;;;;;;9.47;6.20;;;;;;;19.94;69.83;99690.16;5095473;28;20020;-85
2023/09/16 08:19:41;;;;;;;13.90;5.50;;;;;;;19.95;70.09;99684.28;5095188;28;20024;-85
2023/09/16 08:22:07;;;;;;;9.10;5.85;;;;;;;19.98;70.36;99699.44;5095923;28;20024;-85
2023/09/16 08:24:34;;;;;;;11.57;5.95;;;;;;;19.97;70.69;99695.03;5096210;28;20024;-85
2023/09/16 08:26:59;;;;;;;11.18;5.55;;;;;;;19.99;70.53;99690.00;5095747;28;20024;-85
2023/09/16 08:29:24;;;;;;;10.18;5.10;;;;;;;20.02;70.31;99688.50;5095121;28;20103;-85
2023/09/16 08:31:49;;;;;;;9.17;5.67;;;;;;;20.06;70.41;99693.06;5086470;28;20028;-85
2023/09/16 08:34:15;;;;;;;13.33;6.50;;;;;;;20.10;69.94;99679.38;5084754;28;20283;-85
2023/09/16 08:36:40;;;;;;;13.57;5.93;;;;;;;20.15;70.14;99686.72;5086861;28;20306;-85
2023/09/16 08:39:05;;;;;;;9.85;5.78;;;;;;;20.18;70.02;99684.09;5087294;28;20273;-85
2023/09/16 08:41:59;;;;;;;10.02;5.78;;;;;;;20.23;70.23;99693.34;5085332;28;20044;-85
2023/09/16 08:44:28;;;;;;;9.60;6.30;;;;;;;20.28;70.09;99696.72;5086274;28;20032;-85
2023/09/16 08:46:59;;;;;;;11.20;6.55;;;;;;;20.32;69.75;99696.09;5084335;28;20658;-86
2023/09/16 08:49:28;;;;;;;11.20;6.53;;;;;;;20.36;69.67;99695.06;5087042;28;20028;-85
2023/09/16 08:51:54;;;;;;;10.60;5.60;;;;;;;20.41;69.89;99699.59;5086427;28;20142;-85
2023/09/16 08:54:21;;;;;;;9.23;5.85;;;;;;;20.46;70.17;99687.53;5085535;28;20140;-85
2023/09/16 08:56:48;;;;;;;10.52;6.05;;;;;;;20.54;70.87;99695.00;5086173;28;20485;-85
2023/09/16 08:59:14;;;;;;;12.60;7.20;;;;;;;20.61;70.26;99691.69;5086476;28;20036;-85
2023/09/16 09:01:42;;;;;;;8.82;5.85;;;;;;;20.67;71.07;99693.09;5086105;28;20503;-85
2023/09/16 09:04:07;;;;;;;13.38;5.90;;;;;;;20.70;70.21;99694.41;5086133;28;20118;-86
2023/09/16 09:06:33;;;;;;;10.18;4.90;;;;;;;20.73;70.28;99690.94;5086192;28;20135;-85
2023/09/16 09:08:58;;;;;;;12.98;6.85;;;;;;;20.79;70.30;99695.16;5086098;28;20043;-85
2023/09/16 09:11:24;;;;;;;12.30;5.93;;;;;;;20.87;70.37;99699.81;5084751;28;20024;-85
2023/09/16 09:13:51;;;;;;;11.30;6.35;;;;;;;20.93;69.94;99696.88;5084920;28;20368;-85
2023/09/16 09:16:18;;;;;;;11.18;6.55;;;;;;;20.97;69.79;99687.56;5085938;28;20130;-85
2023/09/16 09:18:46;;;;;;;11.48;7.38;;;;;;;21.01;69.66;99682.16;5085185;28;20032;-85
2023/09/16 09:21:12;;;;;;;11.02;6.68;;;;;;;21.06;69.50;99684.72;5085541;28;20067;-85
2023/09/16 09:23:37;;;;;;;13.30;5.70;;;;;;;21.13;69.21;99688.91;5085993;28;20059;-85
2023/09/16 09:26:02;;;;;;;11.50;5.90;;;;;;;21.17;69.05;99685.13;5086229;28;20460;-84
2023/09/16 09:28:28;;;;;;;15.30;6.57;;;;;;;21.20;69.20;99683.63;5086060;28;20280;-85
2023/09/16 09:30:55;;;;;;;9.90;5.70;;;;;;;21.25;68.95;99683.44;5085659;28;20035;-85
2023/09/16 09:33:21;;;;;;;10.57;5.88;;;;;;;21.26;68.87;99687.81;5084637;28;20024;-85
2023/09/16 09:35:46;;;;;;;10.73;6.30;;;;;;;21.34;69.33;99689.69;5085122;28;20031;-85
2023/09/16 09:38:14;;;;;;;9.10;5.75;;;;;;;21.41;68.68;99683.63;5085763;28;20035;-85
2023/09/16 09:40:39;;;;;;;13.40;6.65;;;;;;;21.44;68.61;99684.88;5085630;28;20494;-85
2023/09/16 09:43:04;;;;;;;9.25;5.30;;;;;;;21.49;68.40;99684.69;5085958;28;20044;-85
2023/09/16 09:45:35;;;;;;;12.57;6.80;;;;;;;21.53;68.51;99685.63;5085121;28;20083;-85
2023/09/16 09:48:01;;;;;;;8.43;5.28;;;;;;;21.58;68.33;99688.16;5085645;28;20036;-85
2023/09/16 09:50:30;;;;;;;12.27;6.03;;;;;;;21.72;68.78;99692.63;5085255;28;20032;-85
2023/09/16 09:52:56;;;;;;;9.38;5.05;;;;;;;21.83;68.33;99687.44;5085589;28;20028;-85
2023/09/16 09:55:23;;;;;;;15.30;6.15;;;;;;;21.89;67.88;99682.47;5085112;28;20031;-85
2023/09/16 09:57:50;;;;;;;8.63;6.05;;;;;;;21.91;67.46;99688.50;5085388;28;20040;-86
2023/09/16 10:00:18;;;;;;;8.27;5.05;;;;;;;21.91;67.12;99685.72;5085345;28;20040;-85
2023/09/16 10:02:44;;;;;;;10.43;6.45;;;;;;;22.04;68.33;99689.34;5085413;28;20039;-86
2023/09/16 10:05:35;;;;;;;8.90;6.07;;;;;;;22.18;67.28;99691.78;5084743;28;20101;-85
2023/09/16 10:08:01;;;;;;;10.88;6.10;;;;;;;22.17;66.75;99701.25;5085532;28;20263;-86
2023/09/16 10:10:26;;;;;;;10.63;5.60;;;;;;;22.23;66.51;99694.31;5085284;28;20035;-84
2023/09/16 10:12:53;;;;;;;9.18;6.03;;;;;;;22.39;66.64;99699.19;5085552;28;20040;-85
2023/09/16 10:15:26;;;;;;;11.07;6.80;;;;;;;22.46;65.91;99693.03;5084369;28;20043;-85
2023/09/16 10:17:53;;;;;;;10.55;6.30;;;;;;;22.46;66.09;99691.09;5085042;28;20225;-85
2023/09/16 10:20:18;;;;;;;10.68;6.05;;;;;;;22.50;66.01;99685.63;5084877;28;20042;-85
2023/09/16 10:22:44;;;;;;;11.75;5.63;;;;;;;22.53;65.54;99689.69;5085173;28;20027;-85
2023/09/16 10:25:11;;;;;;;12.80;6.13;;;;;;;22.59;65.34;99685.53;5083692;28;20035;-85
2023/09/16 10:27:47;;;;;;;9.32;6.13;;;;;;;22.62;65.88;99693.97;5084907;28;20028;-85
2023/09/16 10:30:14;;;;;;;14.05;5.32;;;;;;;22.68;66.06;99686.22;5085088;28;20044;-86
2023/09/16 10:32:40;;;;;;;9.85;6.07;;;;;;;22.77;65.54;99700.00;5084803;28;20111;-85
2023/09/16 10:35:06;;;;;;;11.20;5.82;;;;;;;22.85;65.43;99695.47;5083736;28;20111;-85
2023/09/16 10:37:33;;;;;;;9.30;5.70;;;;;;;23.11;66.09;99687.88;5084655;28;20111;-85
2023/09/16 10:39:59;;;;;;;11.52;6.28;;;;;;;23.33;65.09;99686.50;5084896;28;20119;-86
2023/09/16 10:42:25;;;;;;;12.52;6.55;;;;;;;23.31;64.93;99686.88;5084795;28;20078;-85
2023/09/16 10:44:53;;;;;;;9.88;5.57;;;;;;;23.33;65.04;99694.84;5083919;28;20473;-84
2023/09/16 10:47:19;;;;;;;10.63;6.32;;;;;;;23.35;64.67;99684.19;5084638;28;20192;-85
2023/09/16 10:49:44;;;;;;;9.52;5.65;;;;;;;23.31;64.88;99680.50;5084607;28;20040;-85
2023/09/16 10:52:16;;;;;;;8.93;5.90;;;;;;;23.39;64.95;99684.31;5084633;28;20373;-85
2023/09/16 10:55:22;;;;;;;8.70;5.15;;;;;;;23.38;64.43;99680.72;5084160;28;20164;-85
2023/09/16 10:58:08;;;;;;;9.05;5.68;;;;;;;23.33;64.58;99681.75;5082498;28;20054;-85
2023/09/16 11:00:40;;;;;;;11.07;6.18;;;;;;;23.40;64.48;99680.34;5084716;28;20476;-86
2023/09/16 11:03:13;;;;;;;9.95;6.75;;;;;;;23.46;64.61;99678.16;5084298;28;20044;-85
2023/09/16 11:05:38;;;;;;;9.02;5.60;;;;;;;23.49;64.55;99671.88;5083881;28;20047;-78
2023/09/16 11:08:05;;;;;;;10.75;5.80;;;;;;;23.51;64.63;99675.13;5083473;28;20040;-77
2023/09/16 11:10:30;;;;;;;10.63;6.22;;;;;;;23.57;64.55;99670.91;5083340;28;20128;-78
2023/09/16 11:12:57;;;;;;;8.70;5.63;;;;;;;23.63;64.30;99671.47;5082871;28;20036;-79
2023/09/16 11:15:30;;;;;;;8.10;5.30;;;;;;;23.63;64.24;99672.28;5082752;28;20038;-80
2023/09/16 11:18:03;;;;;;;9.85;6.03;;;;;;;23.67;64.28;99673.19;5083344;28;20035;-80
2023/09/16 11:20:31;;;;;;;10.90;6.97;;;;;;;23.69;64.22;99666.44;5083210;28;20489;-79
2023/09/16 11:22:57;;;;;;;9.57;6.10;;;;;;;23.72;64.34;99668.50;5082906;28;20058;-78